createdAt,value
2023-03-03T00:00:15.699Z,26.43
2023-03-03T00:01:17.500Z,25.90
2023-03-03T00:02:18.874Z,25.23
2023-03-03T00:03:21.745Z,25.87
2023-03-03T00:04:23.171Z,25.60
2023-03-03T00:05:24.598Z,25.30
2023-03-03T00:06:26.860Z,25.87
2023-03-03T00:07:28.224Z,26.87
2023-03-03T00:08:29.905Z,27.83
2023-03-03T00:09:31.247Z,27.13
2023-03-03T00:10:32.582Z,27.03
2023-03-03T00:11:33.899Z,27.10
2023-03-03T00:12:35.618Z,29.40
2023-03-03T00:13:54.262Z,28.37
2023-03-03T00:14:55.753Z,29.70
2023-03-03T00:16:10.845Z,28.87
2023-03-03T00:17:19.443Z,29.13
2023-03-03T00:18:36.987Z,28.00
2023-03-03T00:19:39.994Z,27.53
2023-03-03T00:20:41.438Z,27.20
2023-03-03T00:21:44.876Z,27.90
2023-03-03T00:22:46.209Z,28.07
2023-03-03T00:23:47.625Z,30.07
2023-03-03T00:24:49.725Z,30.50
2023-03-03T00:25:52.811Z,29.17
2023-03-03T00:26:58.192Z,29.57
2023-03-03T00:28:07.955Z,30.10
2023-03-03T00:29:24.390Z,30.70
2023-03-03T00:30:26.764Z,30.00
2023-03-03T00:31:35.544Z,29.73
2023-03-03T00:32:42.294Z,30.30
2023-03-03T00:33:47.115Z,29.73
2023-03-03T00:34:49.030Z,29.57
2023-03-03T00:35:50.483Z,29.10
2023-03-03T00:36:56.121Z,29.53
2023-03-03T00:38:01.759Z,29.33
2023-03-03T00:39:21.138Z,29.27
2023-03-03T00:40:40.941Z,29.00
2023-03-03T00:41:42.511Z,29.80
2023-03-03T00:42:46.968Z,29.47
2023-03-03T00:43:48.357Z,29.13
2023-03-03T00:44:59.200Z,31.73
2023-03-03T00:46:00.605Z,28.87
2023-03-03T00:47:20.735Z,30.10
2023-03-03T00:48:26.729Z,27.80
2023-03-03T00:49:28.124Z,30.10
2023-03-03T00:50:29.514Z,28.83
2023-03-03T00:51:31.986Z,29.87
2023-03-03T00:52:35.192Z,29.47
2023-03-03T00:53:36.514Z,29.93
2023-03-03T00:54:37.822Z,28.97
2023-03-03T00:55:40.429Z,28.73
2023-03-03T00:56:42.076Z,27.87
2023-03-03T00:57:43.809Z,28.37
2023-03-03T00:58:47.950Z,26.90
2023-03-03T00:59:51.664Z,25.70
2023-03-03T01:00:53.906Z,27.20
2023-03-03T01:01:59.658Z,26.43
2023-03-03T01:03:02.547Z,27.80
2023-03-03T01:04:04.154Z,27.87
2023-03-03T01:05:05.876Z,27.57
2023-03-03T01:06:07.375Z,28.43
2023-03-03T01:07:08.713Z,27.87
2023-03-03T01:08:10.144Z,28.40
2023-03-03T01:09:11.684Z,27.53
2023-03-03T01:10:13.509Z,27.10
2023-03-03T01:11:21.249Z,28.27
2023-03-03T01:12:23.726Z,28.40
2023-03-03T01:13:30.303Z,28.27
2023-03-03T01:14:31.813Z,27.90
2023-03-03T01:15:33.195Z,27.43
2023-03-03T01:16:34.819Z,27.63
2023-03-03T01:17:36.377Z,29.00
2023-03-03T01:18:37.916Z,27.80
2023-03-03T01:19:39.256Z,28.47
2023-03-03T01:20:41.492Z,27.60
2023-03-03T01:21:42.848Z,27.83
2023-03-03T01:22:44.190Z,28.73
2023-03-03T01:23:45.532Z,27.43
2023-03-03T01:24:46.957Z,27.70
2023-03-03T01:25:48.313Z,26.53
2023-03-03T01:26:51.034Z,28.07
2023-03-03T01:27:52.438Z,27.00
2023-03-03T01:28:53.833Z,27.13
2023-03-03T01:29:56.646Z,27.33
2023-03-03T01:31:04.855Z,27.00
2023-03-03T01:32:06.406Z,27.30
2023-03-03T01:33:07.710Z,27.17
2023-03-03T01:34:09.114Z,28.03
2023-03-03T01:35:10.743Z,27.30
2023-03-03T01:36:12.139Z,28.33
2023-03-03T01:37:13.543Z,26.57
2023-03-03T01:38:15.240Z,26.63
2023-03-03T01:39:16.584Z,27.43
2023-03-03T01:40:19.906Z,27.70
2023-03-03T01:41:21.220Z,29.60
2023-03-03T01:42:22.756Z,26.40
2023-03-03T01:43:26.410Z,28.00
2023-03-03T01:44:27.733Z,27.13
2023-03-03T01:45:39.425Z,26.60
2023-03-03T01:46:44.707Z,27.57
2023-03-03T01:48:06.364Z,27.57
2023-03-03T01:49:12.741Z,26.20
2023-03-03T01:50:16.726Z,26.87
2023-03-03T01:51:23.243Z,26.80
2023-03-03T01:52:33.465Z,29.27
2023-03-03T01:53:37.019Z,28.03
2023-03-03T01:54:43.613Z,28.40
2023-03-03T01:55:45.941Z,27.20
2023-03-03T01:56:47.497Z,27.47
2023-03-03T01:57:52.395Z,26.67
2023-03-03T01:59:00.987Z,25.87
2023-03-03T02:00:05.060Z,27.13
2023-03-03T02:01:19.262Z,27.70
2023-03-03T02:02:20.818Z,27.10
2023-03-03T02:03:23.429Z,27.23
2023-03-03T02:04:26.421Z,28.43
2023-03-03T02:05:27.948Z,27.07
2023-03-03T02:06:35.269Z,27.50
2023-03-03T02:07:37.016Z,28.00
2023-03-03T02:08:44.681Z,26.70
2023-03-03T02:09:54.673Z,28.63
2023-03-03T02:10:57.158Z,27.67
2023-03-03T02:12:01.614Z,28.17
2023-03-03T02:13:02.967Z,27.77
2023-03-03T02:14:04.310Z,27.73
2023-03-03T02:15:15.977Z,27.33
2023-03-03T02:16:17.375Z,27.43
2023-03-03T02:17:18.860Z,27.60
2023-03-03T02:18:20.544Z,28.17
2023-03-03T02:19:24.772Z,27.90
2023-03-03T02:20:31.859Z,26.93
2023-03-03T02:21:33.222Z,27.97
2023-03-03T02:22:39.861Z,29.03
2023-03-03T02:23:49.226Z,27.40
2023-03-03T02:24:53.298Z,26.37
2023-03-03T02:25:59.267Z,28.47
2023-03-03T02:27:03.171Z,26.70
2023-03-03T02:28:04.945Z,26.73
2023-03-03T02:29:06.280Z,27.20
2023-03-03T02:30:08.744Z,27.60
2023-03-03T02:31:13.380Z,27.07
2023-03-03T02:32:15.572Z,26.47
2023-03-03T02:33:16.936Z,27.43
2023-03-03T02:34:18.291Z,28.27
2023-03-03T02:35:25.701Z,28.13
2023-03-03T02:36:30.096Z,27.23
2023-03-03T02:37:31.575Z,27.73
2023-03-03T02:38:44.637Z,27.60
2023-03-03T02:39:46.321Z,27.40
2023-03-03T02:40:52.084Z,28.60
2023-03-03T02:41:56.139Z,27.10
2023-03-03T02:43:00.947Z,28.83
2023-03-03T02:44:21.347Z,28.13
2023-03-03T02:45:22.793Z,28.10
2023-03-03T02:46:24.132Z,27.77
2023-03-03T02:47:25.413Z,27.50
2023-03-03T02:48:27.165Z,29.33
2023-03-03T02:49:32.261Z,27.97
2023-03-03T02:50:33.718Z,27.50
2023-03-03T02:51:35.879Z,28.27
2023-03-03T02:52:37.951Z,28.70
2023-03-03T02:53:39.405Z,29.70
2023-03-03T02:54:40.991Z,28.37
2023-03-03T02:55:42.661Z,29.23
2023-03-03T02:56:44.361Z,28.77
2023-03-03T02:57:45.736Z,28.77
2023-03-03T02:58:47.144Z,28.90
2023-03-03T02:59:48.431Z,28.60
2023-03-03T03:00:51.955Z,29.83
2023-03-03T03:01:56.892Z,28.50
2023-03-03T03:02:58.989Z,30.33
2023-03-03T03:04:00.422Z,28.97
2023-03-03T03:05:02.258Z,29.03
2023-03-03T03:06:03.783Z,28.90
2023-03-03T03:07:05.157Z,30.57
2023-03-03T03:08:09.158Z,28.80
2023-03-03T03:09:11.258Z,30.87
2023-03-03T03:10:12.669Z,29.47
2023-03-03T03:11:15.936Z,30.23
2023-03-03T03:12:19.241Z,28.60
2023-03-03T03:13:21.072Z,29.97
2023-03-03T03:14:23.870Z,30.83
2023-03-03T03:15:26.414Z,29.27
2023-03-03T03:16:27.868Z,30.07
2023-03-03T03:17:30.126Z,30.37
2023-03-03T03:18:33.424Z,30.53
2023-03-03T03:19:35.675Z,30.97
2023-03-03T03:20:37.895Z,29.87
2023-03-03T03:21:39.254Z,31.50
2023-03-03T03:22:42.264Z,31.47
2023-03-03T03:23:43.935Z,31.20
2023-03-03T03:24:46.530Z,31.87
2023-03-03T03:25:48.533Z,30.17
2023-03-03T03:26:57.652Z,30.67
2023-03-03T03:28:00.629Z,31.83
2023-03-03T03:29:02.170Z,30.57
2023-03-03T03:30:03.757Z,30.37
2023-03-03T03:31:06.389Z,31.33
2023-03-03T03:32:08.815Z,31.00
2023-03-03T03:33:10.405Z,30.57
2023-03-03T03:34:12.256Z,30.53
2023-03-03T03:35:13.745Z,29.50
2023-03-03T03:36:15.280Z,31.00
2023-03-03T03:37:17.050Z,30.37
2023-03-03T03:38:20.413Z,29.83
2023-03-03T03:39:22.840Z,30.07
2023-03-03T03:40:26.770Z,29.93
2023-03-03T03:41:28.316Z,31.07
2023-03-03T03:42:30.032Z,30.20
2023-03-03T03:43:32.008Z,29.90
2023-03-03T03:44:33.717Z,29.03
2023-03-03T03:45:35.065Z,30.03
2023-03-03T03:46:37.703Z,30.60
2023-03-03T03:47:39.019Z,31.03
2023-03-03T03:48:40.419Z,30.70
2023-03-03T03:49:43.644Z,30.97
2023-03-03T03:50:45.135Z,31.40
2023-03-03T03:51:46.636Z,31.30
2023-03-03T03:52:51.301Z,29.83
2023-03-03T03:53:53.264Z,30.30
2023-03-03T03:54:54.607Z,31.30
2023-03-03T03:55:56.084Z,29.77
2023-03-03T03:56:57.463Z,30.53
2023-03-03T03:57:59.351Z,31.97
2023-03-03T03:59:01.007Z,30.47
2023-03-03T04:00:02.764Z,30.47
2023-03-03T04:01:05.536Z,31.10
2023-03-03T04:02:08.716Z,30.07
2023-03-03T04:03:10.910Z,30.83
2023-03-03T04:04:12.397Z,31.13
2023-03-03T04:05:14.140Z,29.53
2023-03-03T04:06:15.491Z,31.37
2023-03-03T04:07:17.146Z,30.80
2023-03-03T04:08:18.589Z,31.63
2023-03-03T04:09:21.168Z,31.80
2023-03-03T04:10:22.722Z,29.97
2023-03-03T04:11:24.082Z,30.17
2023-03-03T04:12:25.623Z,29.33
2023-03-03T04:13:28.910Z,31.23
2023-03-03T04:14:30.683Z,29.93
2023-03-03T04:15:32.301Z,30.87
2023-03-03T04:16:34.711Z,30.50
2023-03-03T04:17:36.314Z,29.53
2023-03-03T04:18:37.688Z,29.97
2023-03-03T04:19:39.084Z,29.50
2023-03-03T04:20:40.665Z,30.23
2023-03-03T04:21:42.385Z,28.33
2023-03-03T04:22:43.792Z,29.63
2023-03-03T04:23:45.332Z,29.87
2023-03-03T04:24:48.590Z,29.20
2023-03-03T04:25:51.366Z,29.23
2023-03-03T04:26:54.212Z,29.50
2023-03-03T04:27:55.947Z,29.17
2023-03-03T04:28:58.970Z,29.50
2023-03-03T04:30:00.406Z,29.27
2023-03-03T04:31:01.824Z,29.47
2023-03-03T04:32:05.434Z,28.90
2023-03-03T04:33:07.528Z,30.23
2023-03-03T04:34:08.993Z,28.53
2023-03-03T04:35:10.989Z,29.33
2023-03-03T04:36:15.208Z,29.53
2023-03-03T04:37:16.557Z,29.10
2023-03-03T04:38:17.931Z,29.80
2023-03-03T04:39:19.908Z,28.97
2023-03-03T04:40:21.407Z,28.77
2023-03-03T04:41:24.564Z,30.03
2023-03-03T04:42:28.019Z,30.00
2023-03-03T04:43:29.539Z,30.00
2023-03-03T04:44:31.577Z,29.60
2023-03-03T04:45:33.413Z,29.63
2023-03-03T04:46:35.397Z,31.07
2023-03-03T04:47:37.741Z,31.10
2023-03-03T04:48:39.641Z,29.73
2023-03-03T04:49:41.228Z,28.40
2023-03-03T04:50:43.486Z,30.23
2023-03-03T04:51:44.907Z,30.63
2023-03-03T04:52:46.852Z,30.07
2023-03-03T04:53:48.217Z,30.27
2023-03-03T04:54:50.566Z,31.30
2023-03-03T04:55:52.959Z,29.37
2023-03-03T04:56:55.375Z,29.00
2023-03-03T04:57:56.876Z,29.67
2023-03-03T04:58:58.309Z,29.20
2023-03-03T04:59:59.619Z,29.40
2023-03-03T05:01:00.983Z,28.63
2023-03-03T05:02:05.286Z,30.07
2023-03-03T05:03:06.974Z,28.97
2023-03-03T05:04:08.534Z,28.30
2023-03-03T05:05:10.621Z,29.13
2023-03-03T05:06:12.018Z,29.27
2023-03-03T05:07:13.316Z,29.13
2023-03-03T05:08:15.044Z,28.87
2023-03-03T05:09:16.351Z,28.27
2023-03-03T05:10:17.671Z,29.67
2023-03-03T05:11:18.959Z,29.87
2023-03-03T05:12:20.268Z,28.83
2023-03-03T05:13:21.575Z,29.10
2023-03-03T05:14:22.992Z,29.07
2023-03-03T05:15:24.363Z,28.70
2023-03-03T05:16:25.803Z,28.57
2023-03-03T05:17:27.180Z,28.47
2023-03-03T05:18:28.804Z,29.13
2023-03-03T05:19:30.671Z,29.00
2023-03-03T05:20:32.114Z,28.97
2023-03-03T05:21:33.430Z,29.87
2023-03-03T05:22:34.862Z,27.83
2023-03-03T05:23:36.307Z,29.73
2023-03-03T05:24:37.685Z,29.63
2023-03-03T05:25:40.219Z,29.13
2023-03-03T05:26:41.679Z,29.60
2023-03-03T05:27:43.873Z,28.77
2023-03-03T05:28:45.323Z,29.33
2023-03-03T05:29:46.734Z,29.93
2023-03-03T05:30:48.093Z,29.77
2023-03-03T05:31:49.725Z,28.87
2023-03-03T05:32:51.543Z,28.27
2023-03-03T05:33:53.492Z,28.83
2023-03-03T05:34:55.073Z,29.20
2023-03-03T05:35:57.318Z,30.43
2023-03-03T05:36:59.040Z,29.83
2023-03-03T05:38:00.782Z,27.73
2023-03-03T05:39:02.438Z,29.57
2023-03-03T05:40:04.874Z,27.77
2023-03-03T05:41:06.555Z,29.00
2023-03-03T05:42:08.992Z,29.33
2023-03-03T05:43:10.441Z,29.47
2023-03-03T05:44:11.899Z,28.80
2023-03-03T05:45:13.532Z,29.67
2023-03-03T05:46:15.129Z,28.50
2023-03-03T05:47:16.518Z,28.90
2023-03-03T05:48:17.969Z,28.40
2023-03-03T05:49:19.516Z,28.13
2023-03-03T05:50:21.961Z,29.80
2023-03-03T05:51:23.363Z,29.70
2023-03-03T05:52:24.754Z,30.37
2023-03-03T05:53:27.189Z,30.47
2023-03-03T05:54:28.631Z,30.50
2023-03-03T05:55:30.023Z,29.53
2023-03-03T05:56:31.508Z,28.30
2023-03-03T05:57:32.969Z,29.27
2023-03-03T05:58:34.517Z,29.03
2023-03-03T05:59:36.032Z,29.17
2023-03-03T06:00:37.874Z,29.17
2023-03-03T06:01:39.380Z,28.20
2023-03-03T06:02:41.328Z,28.23
2023-03-03T06:03:42.790Z,28.67
2023-03-03T06:04:44.168Z,27.53
2023-03-03T06:05:45.707Z,28.93
2023-03-03T06:06:47.622Z,27.67
2023-03-03T06:07:49.733Z,27.97
2023-03-03T06:08:51.449Z,29.60
2023-03-03T06:09:53.661Z,26.90
2023-03-03T06:10:55.672Z,28.40
2023-03-03T06:11:58.538Z,28.30
2023-03-03T06:13:00.650Z,28.47
2023-03-03T06:14:02.695Z,28.43
2023-03-03T06:15:05.592Z,27.83
2023-03-03T06:16:08.701Z,27.67
2023-03-03T06:17:15.985Z,28.90
2023-03-03T06:18:21.537Z,29.07
2023-03-03T06:19:24.900Z,29.07
2023-03-03T06:20:29.697Z,28.70
2023-03-03T06:21:32.357Z,27.97
2023-03-03T06:22:34.129Z,27.83
2023-03-03T06:23:35.475Z,28.20
2023-03-03T06:24:37.018Z,28.47
2023-03-03T06:25:56.101Z,28.87
2023-03-03T06:26:58.733Z,29.33
2023-03-03T06:28:01.254Z,27.83
2023-03-03T06:29:03.326Z,27.30
2023-03-03T06:30:06.697Z,28.40
2023-03-03T06:31:08.871Z,28.00
2023-03-03T06:32:10.835Z,26.80
2023-03-03T06:33:12.349Z,27.53
2023-03-03T06:34:14.683Z,26.27
2023-03-03T06:35:16.820Z,27.13
2023-03-03T06:36:19.475Z,28.30
2023-03-03T06:37:22.571Z,27.70
2023-03-03T06:38:25.535Z,26.70
2023-03-03T06:39:27.055Z,26.87
2023-03-03T06:40:28.790Z,27.20
2023-03-03T06:41:31.081Z,26.90
2023-03-03T06:42:33.463Z,26.47
2023-03-03T06:43:37.184Z,26.83
2023-03-03T06:44:38.798Z,26.93
2023-03-03T06:45:40.390Z,27.93
2023-03-03T06:46:41.908Z,25.87
2023-03-03T06:47:43.762Z,27.40
2023-03-03T06:48:45.459Z,25.47
2023-03-03T06:49:47.032Z,27.93
2023-03-03T06:50:48.654Z,26.40
2023-03-03T06:51:50.653Z,26.10
2023-03-03T06:52:59.640Z,25.43
2023-03-03T06:54:03.275Z,25.50
2023-03-03T06:55:18.248Z,25.87
2023-03-03T06:56:19.673Z,25.07
2023-03-03T06:57:31.577Z,25.80
2023-03-03T06:58:36.078Z,25.83
2023-03-03T06:59:37.412Z,26.33
2023-03-03T07:00:38.805Z,25.27
2023-03-03T07:01:40.907Z,24.53
2023-03-03T07:02:42.548Z,24.90
2023-03-03T07:03:44.485Z,25.13
2023-03-03T07:04:47.105Z,25.93
2023-03-03T07:05:49.169Z,25.90
2023-03-03T07:06:50.543Z,26.57
2023-03-03T07:07:51.958Z,26.63
2023-03-03T07:08:54.221Z,25.67
2023-03-03T07:09:56.654Z,25.70
2023-03-03T07:11:01.371Z,26.57
2023-03-03T07:12:10.513Z,25.33
2023-03-03T07:13:20.315Z,26.17
2023-03-03T07:14:22.029Z,24.40
2023-03-03T07:15:24.840Z,22.97
2023-03-03T07:16:27.860Z,23.07
2023-03-03T07:17:30.687Z,22.57
2023-03-03T07:18:38.022Z,23.87
2023-03-03T07:21:22.060Z,21.53
2023-03-03T07:22:25.625Z,21.40
2023-03-03T07:23:46.323Z,21.30
2023-03-03T07:24:54.671Z,21.27
2023-03-03T07:26:01.300Z,20.13
2023-03-03T07:27:05.485Z,19.93
2023-03-03T07:28:26.859Z,20.83
2023-03-03T07:29:30.640Z,20.43
2023-03-03T07:30:32.128Z,19.87
2023-03-03T07:31:39.083Z,20.03
2023-03-03T07:32:42.109Z,19.43
2023-03-03T07:33:44.745Z,20.77
2023-03-03T07:34:49.540Z,18.83
2023-03-03T07:35:51.730Z,19.80
2023-03-03T07:37:01.325Z,19.17
2023-03-03T07:38:03.160Z,19.20
2023-03-03T07:39:18.630Z,19.47
2023-03-03T07:40:23.242Z,19.83
2023-03-03T07:41:24.762Z,20.60
2023-03-03T07:42:39.973Z,19.23
2023-03-03T07:43:54.453Z,18.97
2023-03-03T07:44:57.517Z,21.87
2023-03-03T07:46:03.508Z,21.17
2023-03-03T07:47:15.409Z,20.30
2023-03-03T07:48:25.016Z,18.90
2023-03-03T07:49:35.004Z,19.97
2023-03-03T07:50:36.378Z,20.30
2023-03-03T07:51:41.723Z,18.17
2023-03-03T07:52:44.172Z,19.60
2023-03-03T07:53:47.670Z,20.03
2023-03-03T07:54:49.943Z,20.23
2023-03-03T07:55:51.539Z,18.97
2023-03-03T07:56:52.936Z,18.60
2023-03-03T07:57:59.166Z,20.53
2023-03-03T07:59:02.779Z,21.00
2023-03-03T08:00:13.050Z,20.33
2023-03-03T08:01:29.251Z,20.10
2023-03-03T08:02:37.282Z,19.70
2023-03-03T08:03:38.734Z,19.67
2023-03-03T08:04:41.764Z,20.10
2023-03-03T08:05:44.636Z,20.00
2023-03-03T08:06:49.950Z,20.20
2023-03-03T08:07:51.383Z,19.37
2023-03-03T08:08:52.794Z,20.47
2023-03-03T08:09:59.009Z,20.60
2023-03-03T08:11:01.334Z,19.67
2023-03-03T08:12:21.578Z,20.87
2023-03-03T08:13:26.003Z,19.13
2023-03-03T08:14:29.558Z,20.67
2023-03-03T08:15:32.345Z,21.07
2023-03-03T08:16:40.143Z,19.10
2023-03-03T08:17:42.721Z,21.20
2023-03-03T08:18:48.597Z,19.67
2023-03-03T08:19:51.233Z,19.80
2023-03-03T08:21:05.490Z,21.97
2023-03-03T08:22:13.869Z,20.57
2023-03-03T08:23:15.992Z,19.87
2023-03-03T08:24:17.475Z,20.13
2023-03-03T08:25:18.986Z,19.97
2023-03-03T08:26:21.415Z,19.00
2023-03-03T08:27:22.971Z,17.97
2023-03-03T08:28:24.404Z,18.97
2023-03-03T08:29:25.769Z,18.33
2023-03-03T08:30:27.306Z,18.93
2023-03-03T08:31:40.649Z,18.40
2023-03-03T08:32:43.324Z,17.87
2023-03-03T08:33:45.057Z,18.63
2023-03-03T08:34:46.573Z,17.40
2023-03-03T08:35:48.531Z,18.77
2023-03-03T08:36:50.010Z,20.47
2023-03-03T08:37:51.711Z,20.40
2023-03-03T08:38:53.080Z,19.40
2023-03-03T08:39:54.592Z,18.33
2023-03-03T08:40:55.989Z,19.00
2023-03-03T08:41:57.739Z,18.43
2023-03-03T08:42:59.244Z,17.37
2023-03-03T08:44:00.680Z,17.50
2023-03-03T08:45:02.239Z,17.30
2023-03-03T08:46:05.334Z,17.60
2023-03-03T08:47:06.847Z,18.00
2023-03-03T08:48:08.379Z,18.23
2023-03-03T08:49:09.865Z,18.70
2023-03-03T08:50:11.834Z,18.23
2023-03-03T08:51:13.196Z,17.73
2023-03-03T08:52:14.563Z,18.53
2023-03-03T08:53:16.758Z,16.90
2023-03-03T08:54:18.158Z,17.30
2023-03-03T08:55:19.687Z,17.97
2023-03-03T08:56:21.047Z,17.63
2023-03-03T08:57:22.398Z,18.10
2023-03-03T08:58:33.467Z,18.13
2023-03-03T08:59:38.943Z,17.53
2023-03-03T09:00:40.772Z,18.57
2023-03-03T09:01:44.706Z,18.30
2023-03-03T09:02:46.320Z,18.37
2023-03-03T09:03:47.747Z,18.20
2023-03-03T09:04:49.155Z,18.00
2023-03-03T09:05:50.533Z,18.67
2023-03-03T09:06:51.863Z,18.33
2023-03-03T09:07:53.854Z,18.37
2023-03-03T09:08:55.280Z,19.27
2023-03-03T09:09:56.680Z,18.90
2023-03-03T09:10:57.987Z,19.00
2023-03-03T09:12:14.846Z,20.07
2023-03-03T09:13:18.892Z,19.90
2023-03-03T09:14:20.954Z,19.20
2023-03-03T09:15:26.795Z,20.40
2023-03-03T09:16:30.936Z,19.33
2023-03-03T09:17:34.278Z,19.97
2023-03-03T09:18:36.776Z,20.27
2023-03-03T09:19:38.368Z,20.53
2023-03-03T09:20:40.653Z,20.57
2023-03-03T09:21:42.395Z,19.97
2023-03-03T09:22:44.862Z,20.37
2023-03-03T09:23:56.584Z,21.70
2023-03-03T09:24:59.068Z,21.50
2023-03-03T09:26:18.959Z,20.73
2023-03-03T09:27:31.006Z,21.60
2023-03-03T09:28:32.500Z,20.97
2023-03-03T09:29:37.414Z,20.87
2023-03-03T09:30:40.097Z,21.57
2023-03-03T09:31:54.877Z,21.70
2023-03-03T09:32:56.945Z,21.87
2023-03-03T09:33:59.422Z,22.40
2023-03-03T09:35:20.868Z,22.50
2023-03-03T09:36:26.804Z,22.50
2023-03-03T09:37:40.373Z,22.43
2023-03-03T09:38:44.063Z,21.70
2023-03-03T09:39:48.524Z,20.77
2023-03-03T09:40:55.643Z,22.57
2023-03-03T09:42:20.500Z,21.30
2023-03-03T09:43:30.512Z,22.17
2023-03-03T09:44:42.689Z,22.10
2023-03-03T09:45:44.033Z,21.93
2023-03-03T09:46:48.265Z,21.90
2023-03-03T09:48:01.734Z,22.37
2023-03-03T09:49:15.818Z,22.90
2023-03-03T09:50:17.152Z,22.23
2023-03-03T09:51:41.659Z,22.67
2023-03-03T09:52:58.289Z,22.33
2023-03-03T09:54:08.683Z,22.90
2023-03-03T09:55:28.349Z,21.93
2023-03-03T09:56:38.424Z,23.37
2023-03-03T09:58:01.233Z,22.17
2023-03-03T09:59:09.848Z,21.23
2023-03-03T10:00:26.333Z,22.20
2023-03-03T10:01:43.006Z,22.03
2023-03-03T10:03:01.063Z,22.37
2023-03-03T10:04:05.349Z,21.13
2023-03-03T10:05:17.180Z,22.60
2023-03-03T10:06:24.187Z,21.57
2023-03-03T10:07:39.296Z,21.77
2023-03-03T10:08:54.753Z,21.47
2023-03-03T10:09:56.156Z,20.30
2023-03-03T10:11:03.766Z,21.20
2023-03-03T10:12:11.427Z,21.47
2023-03-03T10:13:15.511Z,21.70
2023-03-03T10:14:29.443Z,21.67
2023-03-03T10:15:43.265Z,20.87
2023-03-03T10:17:03.951Z,22.57
2023-03-03T10:18:08.727Z,20.63
2023-03-03T10:19:29.033Z,21.93
2023-03-03T10:20:49.055Z,22.70
2023-03-03T10:21:55.967Z,22.30
2023-03-03T10:23:18.062Z,21.20
2023-03-03T10:24:28.276Z,22.97
2023-03-03T10:25:35.806Z,23.27
2023-03-03T10:27:09.881Z,23.77
2023-03-03T10:28:15.954Z,22.97
2023-03-03T10:29:49.956Z,23.10
2023-03-03T10:31:20.790Z,22.83
2023-03-03T10:32:22.411Z,22.97
2023-03-03T10:33:30.711Z,23.97
2023-03-03T10:34:41.421Z,23.13
2023-03-03T10:36:07.381Z,22.63
2023-03-03T10:37:14.087Z,24.17
2023-03-03T10:38:26.100Z,22.80
2023-03-03T10:39:37.236Z,24.50
2023-03-03T10:40:57.256Z,23.37
2023-03-03T10:42:05.956Z,22.43
2023-03-03T10:43:32.414Z,23.53
2023-03-03T10:44:42.477Z,23.47
2023-03-03T10:45:45.031Z,23.17
2023-03-03T10:47:12.367Z,22.70
2023-03-03T10:48:13.695Z,24.03
2023-03-03T10:49:41.277Z,24.20
2023-03-03T10:50:42.644Z,22.43
2023-03-03T10:52:03.029Z,24.37
2023-03-03T10:53:23.422Z,23.00
2023-03-03T10:54:33.990Z,22.23
2023-03-03T10:55:39.503Z,23.97
2023-03-03T10:56:53.353Z,26.27
2023-03-03T10:58:13.948Z,23.00
2023-03-03T10:59:34.259Z,23.80
2023-03-03T11:00:40.775Z,24.33
2023-03-03T11:01:47.286Z,24.63
2023-03-03T11:03:08.889Z,24.07
2023-03-03T11:04:10.318Z,23.30
2023-03-03T11:05:19.283Z,24.57
2023-03-03T11:06:24.970Z,24.43
2023-03-03T11:07:35.134Z,24.70
2023-03-03T11:08:40.179Z,24.50
2023-03-03T11:09:47.810Z,25.20
2023-03-03T11:10:58.684Z,23.33
2023-03-03T11:12:15.277Z,24.87
2023-03-03T11:13:35.571Z,23.73
2023-03-03T11:14:47.609Z,24.17
2023-03-03T11:15:51.310Z,24.40
2023-03-03T11:17:12.037Z,23.60
2023-03-03T11:18:16.525Z,25.50
2023-03-03T11:19:30.199Z,25.40
2023-03-03T11:20:31.592Z,23.77
2023-03-03T11:21:38.984Z,25.30
2023-03-03T11:22:54.301Z,25.80
2023-03-03T11:24:00.161Z,25.07
2023-03-03T11:25:16.553Z,26.03
2023-03-03T11:26:33.362Z,25.97
2023-03-03T11:27:45.692Z,25.93
2023-03-03T11:28:47.043Z,26.00
2023-03-03T11:30:07.145Z,25.53
2023-03-03T11:31:20.753Z,24.70
2023-03-03T11:32:45.202Z,25.50
2023-03-03T11:34:22.571Z,24.57
2023-03-03T11:35:23.994Z,24.67
2023-03-03T11:36:28.945Z,24.97
2023-03-03T11:37:41.179Z,25.57
2023-03-03T11:38:51.547Z,26.13
2023-03-03T11:39:55.257Z,24.77
2023-03-03T11:40:58.124Z,26.57
2023-03-03T11:42:01.265Z,27.43
2023-03-03T11:43:10.731Z,26.97
2023-03-03T11:44:18.198Z,25.30
2023-03-03T11:45:20.832Z,24.80
2023-03-03T11:46:25.398Z,25.53
2023-03-03T11:47:31.841Z,26.47
2023-03-03T11:48:38.107Z,25.10
2023-03-03T11:49:58.108Z,26.03
2023-03-03T11:51:19.691Z,26.13
2023-03-03T11:52:53.735Z,26.60
2023-03-03T11:53:55.127Z,26.67
2023-03-03T11:55:15.028Z,26.13
2023-03-03T11:56:22.213Z,25.50
2023-03-03T11:57:30.254Z,25.43
2023-03-03T11:58:31.593Z,26.30
2023-03-03T11:59:51.237Z,24.83
2023-03-03T12:00:58.623Z,25.50
2023-03-03T12:02:05.941Z,25.33
2023-03-03T12:03:26.294Z,26.67
2023-03-03T12:04:39.328Z,26.63
2023-03-03T12:05:58.451Z,25.63
2023-03-03T12:07:19.184Z,25.13
2023-03-03T12:08:24.334Z,24.60
2023-03-03T12:09:44.171Z,24.90
2023-03-03T12:10:53.064Z,25.33
2023-03-03T12:12:03.022Z,26.50
2023-03-03T12:13:15.939Z,25.87
2023-03-03T12:14:37.607Z,26.10
2023-03-03T12:15:52.572Z,26.67
2023-03-03T12:16:56.592Z,24.97
2023-03-03T12:17:57.955Z,25.43
2023-03-03T12:19:06.881Z,24.90
2023-03-03T12:20:27.056Z,25.50
2023-03-03T12:21:38.547Z,25.80
2023-03-03T12:23:06.383Z,27.07
2023-03-03T12:24:11.840Z,25.23
2023-03-03T12:25:23.628Z,26.03
2023-03-03T12:26:25.030Z,26.17
2023-03-03T12:27:46.291Z,25.60
2023-03-03T12:28:52.065Z,25.23
2023-03-03T12:30:05.153Z,25.93
2023-03-03T12:31:13.566Z,25.07
2023-03-03T12:32:15.138Z,25.87
2023-03-03T12:33:29.235Z,27.13
2023-03-03T12:34:36.152Z,25.77
2023-03-03T12:35:40.574Z,27.30
2023-03-03T12:36:51.325Z,25.63
2023-03-03T12:38:01.101Z,25.97
2023-03-03T12:39:12.038Z,25.30
2023-03-03T12:40:20.575Z,25.83
2023-03-03T12:41:27.124Z,27.33
2023-03-03T12:42:37.734Z,25.10
2023-03-03T12:43:41.974Z,26.17
2023-03-03T12:45:02.972Z,26.63
2023-03-03T12:46:04.386Z,25.63
2023-03-03T12:47:23.209Z,25.10
2023-03-03T12:48:33.671Z,25.37
2023-03-03T12:49:43.425Z,25.07
2023-03-03T12:51:10.888Z,25.07
2023-03-03T12:52:20.440Z,23.17
2023-03-03T12:53:27.869Z,25.47
2023-03-03T12:54:29.352Z,24.13
2023-03-03T12:55:47.560Z,25.87
2023-03-03T12:56:53.493Z,25.57
2023-03-03T12:58:07.135Z,25.13
2023-03-03T12:59:18.373Z,24.93
2023-03-03T13:00:23.075Z,25.40
2023-03-03T13:01:41.707Z,26.67
2023-03-03T13:02:43.225Z,24.83
2023-03-03T13:04:05.254Z,25.40
2023-03-03T13:05:16.331Z,25.23
2023-03-03T13:06:40.730Z,24.40
2023-03-03T13:07:46.202Z,23.87
2023-03-03T13:08:47.735Z,25.27
2023-03-03T13:09:55.096Z,24.40
2023-03-03T13:11:15.096Z,25.37
2023-03-03T13:12:36.830Z,24.60
2023-03-03T13:13:44.492Z,24.60
2023-03-03T13:14:49.022Z,26.30
2023-03-03T13:16:06.821Z,25.13
2023-03-03T13:17:08.547Z,24.27
2023-03-03T13:18:29.722Z,25.50
2023-03-03T13:20:01.113Z,24.20
2023-03-03T13:21:10.021Z,25.10
2023-03-03T13:22:23.379Z,25.70
2023-03-03T13:23:43.425Z,25.37
2023-03-03T13:24:44.855Z,26.40
2023-03-03T13:25:51.726Z,28.13
2023-03-03T13:27:02.073Z,24.93
2023-03-03T13:28:11.310Z,25.57
2023-03-03T13:29:12.741Z,24.43
2023-03-03T13:30:20.141Z,24.97
2023-03-03T13:31:22.783Z,25.57
2023-03-03T13:32:30.070Z,25.80
2023-03-03T13:33:35.936Z,26.13
2023-03-03T13:34:37.449Z,25.30
2023-03-03T13:35:51.842Z,25.70
2023-03-03T13:36:58.941Z,25.07
2023-03-03T13:38:02.738Z,25.60
2023-03-03T13:39:15.363Z,26.10
2023-03-03T13:40:19.494Z,25.57
2023-03-03T13:41:28.638Z,24.57
2023-03-03T13:42:35.523Z,24.73
2023-03-03T13:43:40.076Z,25.00
2023-03-03T13:44:42.776Z,25.33
2023-03-03T13:45:44.855Z,24.83
2023-03-03T13:47:00.665Z,25.17
2023-03-03T13:48:10.020Z,24.20
2023-03-03T13:49:18.789Z,26.00
2023-03-03T13:50:23.690Z,23.90
2023-03-03T13:51:31.416Z,24.93
2023-03-03T13:52:35.165Z,25.03
2023-03-03T13:53:46.500Z,24.80
2023-03-03T13:54:53.210Z,25.40
2023-03-03T13:56:13.005Z,23.87
2023-03-03T13:57:30.733Z,25.30
2023-03-03T13:58:43.634Z,24.30
2023-03-03T13:59:48.299Z,24.83
2023-03-03T14:00:58.812Z,24.50
2023-03-03T14:02:00.319Z,24.20
2023-03-03T14:03:20.663Z,24.73
2023-03-03T14:04:31.751Z,24.50
2023-03-03T14:05:39.224Z,25.10
2023-03-03T14:06:41.597Z,24.27
2023-03-03T14:07:52.023Z,24.80
2023-03-03T14:09:12.127Z,24.17